Time;durP1;ratioP1;P1;durP2;ratioP2;P2;SDS_P1;SDS_P2;PMS_P1;PMS_P2;Temp;Humidity;BMP_temperature;BMP_pressure;BME280_temperature;BME280_humidity;BME280_pressure;Samples;Min_cycle;Max_cycle;Signal;HPM_P1;HPM_P2
2024/02/20 00:01:00;;;;;;;11.35;6.78;;;;;;;10.34;64.51;95937.66;6192588;23;20007;-87
2024/02/20 00:03:26;;;;;;;10.40;6.93;;;;;;;10.48;64.32;95939.63;6192266;23;20093;-86
2024/02/20 00:05:51;;;;;;;12.50;6.78;;;;;;;10.43;64.20;95939.28;6192238;23;20008;-86
2024/02/20 00:08:17;;;;;;;10.77;6.57;;;;;;;10.41;63.95;95935.22;6192563;23;20008;-87
2024/02/20 00:10:43;;;;;;;10.40;6.38;;;;;;;10.14;64.68;95939.66;6217989;23;20011;-87
2024/02/20 00:15:34;;;;;;;7.88;5.40;;;;;;;10.31;64.28;95946.56;6242858;22;20083;-87
2024/02/20 00:18:03;;;;;;;9.07;5.45;;;;;;;10.38;64.24;95944.16;6192331;23;20043;-86
2024/02/20 00:20:28;;;;;;;6.47;5.35;;;;;;;10.44;63.33;95929.72;6192821;23;20008;-87
2024/02/20 00:22:54;;;;;;;7.75;5.25;;;;;;;10.25;64.01;95923.78;6192128;23;20012;-87
2024/02/20 00:25:19;;;;;;;8.27;5.72;;;;;;;10.39;64.07;95945.78;6192544;23;20019;-87
2024/02/20 00:27:45;;;;;;;9.57;5.05;;;;;;;10.29;63.92;95953.69;6192344;23;20008;-87
2024/02/20 00:30:11;;;;;;;9.85;5.50;;;;;;;10.01;64.83;95937.50;6192460;23;20087;-86
2024/02/20 00:32:39;;;;;;;8.25;5.57;;;;;;;9.91;65.56;95947.19;6193110;23;20016;-87
2024/02/20 00:35:06;;;;;;;10.07;5.70;;;;;;;10.14;64.71;95956.06;6192244;23;20074;-87
2024/02/20 00:37:31;;;;;;;6.90;4.72;;;;;;;10.45;63.38;95941.72;6217756;23;20012;-86
2024/02/20 00:39:56;;;;;;;8.48;4.65;;;;;;;10.42;63.11;95935.06;6217026;23;20139;-86
2024/02/20 00:42:25;;;;;;;6.88;4.70;;;;;;;10.46;63.44;95951.97;6217572;23;20012;-87
2024/02/20 00:44:51;;;;;;;7.20;4.68;;;;;;;10.40;63.22;95942.22;6217294;23;20007;-87
2024/02/20 00:47:19;;;;;;;7.00;4.43;;;;;;;10.22;63.68;95949.28;6167553;23;20008;-87
2024/02/20 00:49:44;;;;;;;6.75;4.60;;;;;;;10.25;64.04;95943.78;6169136;23;20031;-87
2024/02/20 00:52:10;;;;;;;5.95;4.80;;;;;;;10.35;63.50;95934.06;6219952;23;20012;-86
2024/02/20 00:54:41;;;;;;;6.18;4.53;;;;;;;10.36;63.03;95927.91;6219167;23;20012;-88
2024/02/20 00:57:09;;;;;;;5.85;4.40;;;;;;;10.30;63.22;95931.09;6219404;23;20004;-86
2024/02/20 00:59:34;;;;;;;8.48;4.20;;;;;;;10.46;63.26;95917.38;6219344;23;20119;-87
2024/02/20 01:02:00;;;;;;;5.38;4.40;;;;;;;10.40;63.48;95931.81;6219137;23;20020;-86
2024/02/20 01:04:25;;;;;;;6.60;4.10;;;;;;;10.36;63.31;95930.50;6193432;23;20012;-87
2024/02/20 01:06:51;;;;;;;5.65;4.20;;;;;;;10.45;63.23;95929.56;6193733;23;20004;-87
2024/02/20 01:09:16;;;;;;;4.63;3.55;;;;;;;10.59;62.67;95915.13;6218309;23;20000;-87
2024/02/20 01:11:42;;;;;;;6.57;3.80;;;;;;;10.73;62.33;95926.66;6193610;23;20004;-87
2024/02/20 01:14:11;;;;;;;6.15;4.38;;;;;;;10.63;62.56;95923.41;6193935;23;20101;-86
2024/02/20 01:16:36;;;;;;;7.95;3.88;;;;;;;10.59;62.34;95901.31;6194491;23;20032;-86
2024/02/20 01:19:02;;;;;;;6.07;3.70;;;;;;;10.23;63.88;95911.91;6193189;23;20012;-86
2024/02/20 01:21:27;;;;;;;6.93;4.15;;;;;;;10.17;64.53;95911.56;6218942;23;20083;-87
2024/02/20 01:23:52;;;;;;;7.97;4.22;;;;;;;10.34;63.90;95925.47;6218064;23;20050;-87
2024/02/20 01:26:21;;;;;;;5.55;3.90;;;;;;;10.61;62.45;95923.56;6218860;23;20077;-87
2024/02/20 01:31:16;;;;;;;6.05;3.13;;;;;;;10.57;62.70;95923.06;6224816;22;20139;-87
2024/02/20 01:33:44;;;;;;;3.63;2.63;;;;;;;10.50;62.01;95911.66;6194220;23;20070;-87
2024/02/20 01:36:09;;;;;;;4.53;2.90;;;;;;;10.30;63.01;95921.56;6218805;23;20015;-86
2024/02/20 01:38:35;;;;;;;2.83;2.05;;;;;;;10.56;61.92;95920.63;6194077;23;20008;-86
2024/02/20 01:43:25;;;;;;;5.00;2.30;;;;;;;10.20;63.02;95917.41;6241590;22;20024;-87
2024/02/20 01:45:51;;;;;;;4.97;2.58;;;;;;;10.26;63.26;95920.22;6193991;23;20069;-86
2024/02/20 01:48:17;;;;;;;2.85;2.20;;;;;;;10.38;62.51;95912.97;6193964;23;20012;-86
2024/02/20 01:50:45;;;;;;;3.05;2.50;;;;;;;10.10;63.22;95900.16;6193971;23;20080;-86
2024/02/20 01:53:10;;;;;;;2.63;2.03;;;;;;;10.20;62.94;95910.44;6195280;23;20012;-86
2024/02/20 01:55:36;;;;;;;3.60;2.50;;;;;;;10.31;62.77;95912.78;6202458;23;20099;-86
2024/02/20 01:58:02;;;;;;;4.68;2.55;;;;;;;10.25;62.70;95905.56;6218850;23;20008;-86
2024/02/20 02:00:30;;;;;;;3.22;2.83;;;;;;;10.23;63.41;95912.72;6169512;23;20070;-86
2024/02/20 02:02:56;;;;;;;4.32;2.78;;;;;;;10.43;62.45;95900.28;6218738;23;20012;-86
2024/02/20 02:05:21;;;;;;;5.18;3.30;;;;;;;10.37;62.71;95908.72;6192987;23;20004;-86
2024/02/20 02:10:22;;;;;;;4.00;3.05;;;;;;;10.47;63.06;95913.78;6227732;22;20078;-87
2024/02/20 02:12:48;;;;;;;4.10;3.00;;;;;;;10.61;62.83;95914.97;6218703;23;20008;-86
2024/02/20 02:15:14;;;;;;;3.83;2.78;;;;;;;10.65;62.38;95916.25;6193121;23;20008;-86
2024/02/20 02:17:42;;;;;;;5.93;3.00;;;;;;;10.35;63.60;95908.88;6193147;23;20064;-86
2024/02/20 02:20:11;;;;;;;4.97;2.55;;;;;;;10.38;63.13;95907.75;6168394;23;20012;-86
2024/02/20 02:22:36;;;;;;;2.83;2.28;;;;;;;10.40;63.17;95910.22;6193399;23;20018;-87
2024/02/20 02:25:03;;;;;;;2.22;1.95;;;;;;;10.47;62.17;95909.41;6186761;23;20012;-86
2024/02/20 02:27:29;;;;;;;1.60;1.50;;;;;;;10.34;62.05;95896.84;6218777;23;20058;-86
2024/02/20 02:29:54;;;;;;;3.22;1.25;;;;;;;10.27;62.61;95908.03;6243673;23;20000;-86
2024/02/20 02:32:20;;;;;;;2.22;1.60;;;;;;;10.43;62.02;95909.88;6193410;23;20007;-86
2024/02/20 02:34:49;;;;;;;3.50;2.47;;;;;;;10.16;63.14;95899.53;6218296;23;20023;-87
2024/02/20 02:37:14;;;;;;;4.25;2.80;;;;;;;10.21;63.67;95904.28;6193296;23;20012;-86
2024/02/20 02:39:43;;;;;;;2.70;2.45;;;;;;;10.06;63.91;95904.06;6218192;23;20012;-86
2024/02/20 02:42:08;;;;;;;4.05;2.70;;;;;;;10.22;63.84;95915.47;6218183;23;20030;-86
2024/02/20 02:44:34;;;;;;;3.92;2.60;;;;;;;10.14;63.87;95911.88;6218015;23;20007;-86
2024/02/20 02:49:34;;;;;;;3.03;2.53;;;;;;;10.34;63.37;95930.66;6213206;23;20116;-86
2024/02/20 02:52:00;;;;;;;4.57;2.97;;;;;;;10.10;64.01;95915.75;6163229;23;20009;-86
2024/02/20 02:54:25;;;;;;;2.60;2.40;;;;;;;10.13;63.50;95905.06;6163077;23;20062;-87
2024/02/20 02:56:51;;;;;;;3.90;2.58;;;;;;;10.00;64.29;95912.50;6138946;23;20004;-86
2024/02/20 02:59:17;;;;;;;4.47;3.10;;;;;;;10.11;63.66;95922.59;6163553;23;20004;-86
2024/02/20 03:01:43;;;;;;;28.95;3.90;;;;;;;9.91;64.86;95931.59;6163129;23;20004;-86
2024/02/20 03:04:08;;;;;;;9.82;3.30;;;;;;;9.81;64.67;95920.53;6170050;23;20021;-86
2024/02/20 03:06:38;;;;;;;71.72;5.93;;;;;;;10.01;64.46;95929.69;6163358;23;20087;-87
2024/02/20 03:09:12;;;;;;;21.35;4.05;;;;;;;10.01;64.76;95927.09;6187948;23;20009;-86
2024/02/20 03:11:41;;;;;;;3.22;2.70;;;;;;;10.09;63.00;95934.09;6189511;23;20004;-86
2024/02/20 03:14:10;;;;;;;4.40;3.20;;;;;;;9.86;64.10;95939.03;6238124;23;20012;-86
2024/02/20 03:16:39;;;;;;;3.35;2.67;;;;;;;9.86;63.93;95929.50;6238414;23;20008;-87
2024/02/20 03:19:04;;;;;;;5.25;3.22;;;;;;;9.57;64.68;95937.59;6211982;23;20008;-86
2024/02/20 03:21:31;;;;;;;2.40;2.00;;;;;;;9.62;64.38;95940.56;6238110;23;20015;-86
2024/02/20 03:26:26;;;;;;;1.83;1.52;;;;;;;9.85;63.37;95947.81;6178047;23;20025;-87
2024/02/20 03:28:53;;;;;;;2.70;1.63;;;;;;;9.69;63.67;95935.53;6133731;23;20042;-87
2024/02/20 03:31:19;;;;;;;2.40;1.30;;;;;;;9.76;63.30;95945.16;6133496;23;20001;-86
2024/02/20 03:36:19;;;;;;;1.55;1.00;;;;;;;9.83;62.36;95952.38;6224290;22;20047;-86
2024/02/20 03:38:45;;;;;;;2.08;1.10;;;;;;;9.78;62.58;95952.81;6218173;23;20012;-86
2024/02/20 03:41:10;;;;;;;1.85;1.27;;;;;;;9.94;61.96;95952.91;6192306;23;20012;-87
2024/02/20 03:43:37;;;;;;;1.58;1.10;;;;;;;9.91;62.25;95965.38;6218217;23;20008;-86
2024/02/20 03:48:28;;;;;;;1.50;1.30;;;;;;;9.87;62.84;95971.88;6243684;22;20028;-87
2024/02/20 03:50:53;;;;;;;1.85;1.23;;;;;;;9.90;62.09;95971.53;6192103;23;20038;-86
2024/02/20 03:53:19;;;;;;;1.48;1.20;;;;;;;9.99;62.04;95978.41;6192344;23;20020;-86
2024/02/20 03:55:48;;;;;;;2.75;1.60;;;;;;;9.94;62.21;95967.69;6192897;23;20083;-86
2024/02/20 03:58:15;;;;;;;1.77;1.42;;;;;;;9.98;62.08;95972.41;6193713;23;20000;-86
2024/02/20 04:00:44;;;;;;;2.10;1.20;;;;;;;10.02;61.47;95980.72;6218023;23;20011;-86
2024/02/20 04:03:10;;;;;;;1.92;1.30;;;;;;;9.99;61.92;95970.63;6217900;23;20142;-86
2024/02/20 04:05:35;;;;;;;2.08;1.52;;;;;;;9.97;61.78;95959.56;6217790;23;20024;-86
2024/02/20 04:08:01;;;;;;;1.83;1.30;;;;;;;10.12;61.58;95978.00;6191937;23;20103;-87
2024/02/20 04:10:26;;;;;;;2.13;1.33;;;;;;;9.98;62.36;95985.41;6192256;23;20005;-86
2024/02/20 04:12:52;;;;;;;2.28;1.48;;;;;;;10.01;62.28;95984.25;6217303;23;20012;-86
2024/02/20 04:15:17;;;;;;;2.95;1.60;;;;;;;9.96;61.98;95978.75;6217585;23;20043;-86
2024/02/20 04:17:45;;;;;;;1.58;1.40;;;;;;;10.20;60.98;95974.63;6217757;23;20008;-87
2024/02/20 04:20:11;;;;;;;2.97;1.35;;;;;;;10.10;61.76;95979.94;6192384;23;20011;-87
2024/02/20 04:22:38;;;;;;;2.63;1.60;;;;;;;10.05;62.02;95985.63;6204459;23;20020;-86
2024/02/20 04:25:05;;;;;;;2.28;1.50;;;;;;;9.90;62.71;95989.72;6159676;23;20017;-86
2024/02/20 04:27:31;;;;;;;2.53;1.50;;;;;;;10.00;62.84;95987.84;6159678;23;20025;-86
2024/02/20 04:29:56;;;;;;;2.55;1.30;;;;;;;9.86;62.36;95978.84;6184197;23;20005;-86
2024/02/20 04:32:24;;;;;;;1.70;1.40;;;;;;;9.91;62.34;95991.38;6245034;22;20147;-86
2024/02/20 04:34:50;;;;;;;1.60;1.40;;;;;;;9.81;62.55;95985.47;6219500;23;20012;-86
2024/02/20 04:37:16;;;;;;;1.50;1.20;;;;;;;9.99;62.48;95996.59;6194566;23;20008;-86
2024/02/20 04:39:47;;;;;;;1.85;1.40;;;;;;;9.84;62.49;96003.34;6219097;23;20000;-86
2024/02/20 04:42:12;;;;;;;3.10;1.27;;;;;;;10.04;62.04;95999.56;6218948;23;20091;-87
2024/02/20 04:44:42;;;;;;;1.30;1.20;;;;;;;9.95;62.36;96006.50;6219839;23;20008;-87
2024/02/20 04:49:33;;;;;;;2.63;1.40;;;;;;;9.93;62.17;95998.03;6244849;22;20059;-87
2024/02/20 04:51:59;;;;;;;1.88;1.45;;;;;;;10.02;61.83;96019.69;6218953;23;20008;-87
2024/02/20 04:54:24;;;;;;;1.50;1.40;;;;;;;10.05;61.52;96006.41;6219153;23;19996;-87
2024/02/20 04:56:50;;;;;;;1.60;1.40;;;;;;;10.08;61.89;96013.88;6219004;23;20015;-87
2024/02/20 04:59:19;;;;;;;3.13;1.60;;;;;;;10.04;62.06;96017.75;6219178;23;20008;-87
2024/02/20 05:01:44;;;;;;;1.95;1.23;;;;;;;10.01;62.13;96018.06;6194310;23;20008;-87
2024/02/20 05:04:12;;;;;;;1.55;1.42;;;;;;;10.00;62.29;96024.25;6153307;23;20775;-87
2024/02/20 05:06:40;;;;;;;2.38;1.58;;;;;;;9.90;62.03;96018.31;6154592;23;20053;-87
2024/02/20 05:11:31;;;;;;;2.95;1.83;;;;;;;10.00;62.27;96028.63;6189067;23;20024;-86
2024/02/20 05:13:57;;;;;;;2.85;1.70;;;;;;;10.06;62.13;96034.00;6244191;23;20039;-87
2024/02/20 05:18:47;;;;;;;3.08;1.73;;;;;;;10.10;62.00;96040.53;6216480;23;20026;-87
2024/02/20 05:21:13;;;;;;;2.63;1.80;;;;;;;9.95;62.37;96032.47;6194209;23;20068;-87
2024/02/20 05:23:38;;;;;;;2.55;1.80;;;;;;;9.88;62.73;96030.66;6193889;23;20012;-87
2024/02/20 05:26:04;;;;;;;4.10;1.80;;;;;;;9.96;62.44;96036.72;6194047;23;20012;-87
2024/02/20 05:30:55;;;;;;;3.65;2.00;;;;;;;10.02;62.41;96047.47;6251676;22;20000;-87
2024/02/20 05:33:21;;;;;;;3.80;2.40;;;;;;;9.95;62.89;96047.25;6221498;23;20021;-87
2024/02/20 05:35:46;;;;;;;3.75;2.47;;;;;;;9.98;62.95;96037.38;6193318;23;20065;-87
2024/02/20 05:38:13;;;;;;;5.00;2.78;;;;;;;9.78;63.29;96041.13;6219193;23;20053;-87
2024/02/20 05:40:41;;;;;;;4.53;2.20;;;;;;;9.86;62.99;96046.41;6243584;23;20008;-86
2024/02/20 05:43:09;;;;;;;2.20;1.83;;;;;;;9.74;62.77;96053.63;6218889;23;20007;-87
2024/02/20 05:45:34;;;;;;;2.33;1.90;;;;;;;9.86;61.93;96045.56;6218425;23;20011;-87
2024/02/20 05:48:03;;;;;;;2.88;1.52;;;;;;;9.74;62.03;96039.81;6193814;23;20008;-87
2024/02/20 05:50:29;;;;;;;1.75;1.52;;;;;;;9.88;61.91;96041.03;6194033;23;20058;-87
2024/02/20 05:52:57;;;;;;;2.28;1.70;;;;;;;9.75;62.09;96044.88;6193917;23;20004;-87
2024/02/20 05:55:22;;;;;;;2.50;1.88;;;;;;;9.94;61.72;96050.84;6193526;23;20012;-86
2024/02/20 05:57:48;;;;;;;1.50;1.20;;;;;;;9.93;61.38;96062.19;6193908;23;20016;-86
2024/02/20 06:00:14;;;;;;;2.75;0.90;;;;;;;9.70;61.19;96048.88;6218430;23;20000;-86
2024/02/20 06:02:39;;;;;;;0.80;0.70;;;;;;;9.79;60.86;96064.38;6193319;23;20011;-87
2024/02/20 06:05:07;;;;;;;1.00;0.60;;;;;;;9.62;61.45;96067.81;6193635;23;20019;-86
2024/02/20 06:07:32;;;;;;;0.90;0.70;;;;;;;9.46;62.67;96068.53;6194362;23;20011;-87
2024/02/20 06:09:58;;;;;;;0.50;0.50;;;;;;;9.53;61.87;96073.91;6218442;23;20000;-87
2024/02/20 06:12:23;;;;;;;0.50;0.50;;;;;;;9.49;61.65;96068.19;6193617;23;20019;-87
2024/02/20 06:14:49;;;;;;;0.88;0.70;;;;;;;9.44;60.76;96059.22;6218801;23;20019;-87
2024/02/20 06:17:14;;;;;;;1.52;0.55;;;;;;;9.27;60.65;96079.03;6218826;23;20012;-87
2024/02/20 06:19:40;;;;;;;1.98;0.70;;;;;;;9.27;61.62;96073.84;6192748;23;20023;-87
2024/02/20 06:22:06;;;;;;;0.93;0.70;;;;;;;9.24;60.38;96081.94;6218602;23;20018;-87
2024/02/20 06:24:31;;;;;;;0.68;0.52;;;;;;;9.15;60.72;96068.06;6219080;23;20012;-87
2024/02/20 06:26:57;;;;;;;0.85;0.65;;;;;;;9.09;61.05;96077.25;6218904;23;20086;-87
2024/02/20 06:29:22;;;;;;;2.45;0.77;;;;;;;9.01;61.70;96071.97;6242005;22;20059;-87
2024/02/20 06:31:53;;;;;;;0.88;0.65;;;;;;;8.70;61.88;96081.84;6193747;23;20042;-87
2024/02/20 06:34:18;;;;;;;1.40;0.57;;;;;;;8.49;62.63;96077.72;6168917;23;20012;-87
2024/02/20 06:36:46;;;;;;;1.40;0.52;;;;;;;8.65;62.19;96095.25;6193866;23;20008;-87
2024/02/20 06:41:46;;;;;;;1.40;0.55;;;;;;;9.16;61.80;96099.06;6237891;22;20046;-87
2024/02/20 06:44:12;;;;;;;1.42;0.70;;;;;;;8.93;63.31;96116.81;6218325;23;20008;-87
2024/02/20 06:46:40;;;;;;;1.50;1.05;;;;;;;8.97;62.88;96127.72;6192992;23;20027;-87
2024/02/20 06:49:06;;;;;;;2.70;1.27;;;;;;;9.08;62.31;96122.34;6243908;23;20004;-87
2024/02/20 06:51:31;;;;;;;2.50;1.17;;;;;;;9.09;62.42;96131.75;6218619;23;20004;-87
2024/02/20 06:53:57;;;;;;;2.15;1.30;;;;;;;9.11;62.64;96137.59;6193296;23;20043;-86
2024/02/20 06:56:23;;;;;;;2.08;1.55;;;;;;;9.15;61.99;96149.31;6193566;23;20007;-87
2024/02/20 06:58:48;;;;;;;4.03;1.90;;;;;;;8.91;62.93;96144.69;6218334;23;20023;-86
2024/02/20 07:01:17;;;;;;;3.88;1.70;;;;;;;8.81;63.06;96159.47;6218692;23;20008;-87
2024/02/20 07:06:08;;;;;;;3.28;1.65;;;;;;;8.97;62.41;96161.47;6241380;22;20106;-87
2024/02/20 07:08:34;;;;;;;4.15;1.70;;;;;;;8.85;62.84;96160.00;6218683;23;20008;-87
2024/02/20 07:10:59;;;;;;;3.25;1.67;;;;;;;8.81;63.42;96159.47;6218316;23;20004;-86
2024/02/20 07:13:27;;;;;;;3.70;1.80;;;;;;;8.78;63.69;96170.16;6193177;23;20073;-86
2024/02/20 07:15:54;;;;;;;4.75;1.95;;;;;;;8.68;63.91;96179.72;6218693;23;20023;-87
2024/02/20 07:18:19;;;;;;;3.22;2.15;;;;;;;8.57;64.09;96185.91;6192707;23;20035;-86
2024/02/20 07:20:45;;;;;;;3.88;1.90;;;;;;;8.43;64.46;96176.78;6218185;23;20016;-86
2024/02/20 07:23:10;;;;;;;2.78;1.92;;;;;;;8.47;64.51;96185.91;6193229;23;20056;-87
2024/02/20 07:25:38;;;;;;;5.57;2.25;;;;;;;8.71;64.13;96179.44;6218321;23;20062;-87
2024/02/20 07:28:06;;;;;;;4.60;1.75;;;;;;;8.74;63.30;96187.78;6168261;23;20008;-87
2024/02/20 07:30:32;;;;;;;1.63;1.30;;;;;;;8.59;63.14;96182.22;6170355;23;20032;-86
2024/02/20 07:32:58;;;;;;;2.40;1.75;;;;;;;8.68;63.18;96169.34;6158094;23;20017;-86
2024/02/20 07:35:23;;;;;;;2.60;1.40;;;;;;;8.75;62.36;96168.63;6133710;23;20005;-86
2024/02/20 07:37:49;;;;;;;2.38;1.25;;;;;;;8.65;62.78;96178.25;6133811;23;20013;-86
2024/02/20 07:40:16;;;;;;;2.42;1.27;;;;;;;8.55;62.70;96177.47;6132975;23;20012;-87
2024/02/20 07:42:41;;;;;;;3.15;1.30;;;;;;;8.63;62.19;96193.13;6158162;23;20016;-87
2024/02/20 07:45:07;;;;;;;2.22;1.20;;;;;;;8.48;62.62;96173.78;6134159;23;20009;-87
2024/02/20 07:47:35;;;;;;;2.33;1.60;;;;;;;8.32;63.68;96188.13;6158309;23;20020;-87
2024/02/20 07:50:01;;;;;;;3.67;1.33;;;;;;;8.32;64.15;96189.88;6158441;23;20068;-87
2024/02/20 07:52:27;;;;;;;2.60;1.58;;;;;;;8.45;63.46;96190.44;6229477;22;20027;-87
2024/02/20 07:54:52;;;;;;;3.20;1.98;;;;;;;8.23;64.31;96194.16;6217912;23;20039;-87
2024/02/20 07:57:19;;;;;;;3.17;1.50;;;;;;;8.33;63.55;96183.75;6217563;23;20023;-87
2024/02/20 07:59:44;;;;;;;3.08;1.40;;;;;;;8.35;63.35;96192.22;6167696;23;20015;-87
2024/02/20 08:02:10;;;;;;;2.30;1.50;;;;;;;8.08;64.46;96178.19;6192630;23;20008;-87
2024/02/20 08:04:36;;;;;;;1.65;1.30;;;;;;;8.32;63.65;96192.47;6218284;23;20008;-87
2024/02/20 08:07:02;;;;;;;1.55;1.40;;;;;;;8.36;63.50;96197.25;6191862;23;20028;-87
2024/02/20 08:09:27;;;;;;;2.53;1.40;;;;;;;8.47;62.26;96201.47;6192653;23;20008;-87
2024/02/20 08:11:53;;;;;;;2.83;1.30;;;;;;;8.66;62.71;96212.75;6217887;23;20015;-88
2024/02/20 08:14:22;;;;;;;2.63;1.20;;;;;;;8.74;62.19;96189.56;6218223;23;20004;-87
2024/02/20 08:16:48;;;;;;;4.22;1.40;;;;;;;8.97;61.39;96201.19;6193903;23;20004;-87
2024/02/20 08:19:14;;;;;;;2.25;1.50;;;;;;;9.00;61.53;96205.25;6217527;23;20004;-87
2024/02/20 08:21:40;;;;;;;2.60;1.40;;;;;;;8.80;61.82;96201.94;6217388;23;20063;-87
2024/02/20 08:24:06;;;;;;;2.65;1.60;;;;;;;8.80;61.69;96202.75;6192701;23;20035;-86
2024/02/20 08:26:36;;;;;;;2.50;1.50;;;;;;;8.93;60.95;96212.81;6218336;23;20004;-87
2024/02/20 08:29:05;;;;;;;2.47;1.50;;;;;;;8.94;61.46;96209.25;6192512;23;20012;-87
2024/02/20 08:31:31;;;;;;;2.55;1.60;;;;;;;8.93;61.39;96212.81;6218370;23;20000;-86
2024/02/20 08:36:22;;;;;;;3.33;1.60;;;;;;;9.02;62.67;96215.50;6243048;22;20050;-87
2024/02/20 08:38:48;;;;;;;3.03;1.65;;;;;;;9.08;62.83;96205.38;6192712;23;20019;-87
2024/02/20 08:41:13;;;;;;;2.55;1.70;;;;;;;9.36;62.21;96223.53;6217265;23;20004;-87
2024/02/20 08:43:39;;;;;;;3.03;1.77;;;;;;;9.26;62.80;96209.81;6217595;23;19996;-86
2024/02/20 08:46:05;;;;;;;3.35;1.90;;;;;;;9.44;61.92;96202.84;6192568;23;20042;-86
2024/02/20 08:48:30;;;;;;;3.60;1.92;;;;;;;9.67;61.34;96208.47;6217461;23;20004;-86
2024/02/20 08:53:31;;;;;;;4.07;2.03;;;;;;;9.76;61.52;96230.94;6241071;22;20008;-86
2024/02/20 08:55:56;;;;;;;5.80;2.20;;;;;;;9.71;61.53;96227.16;6192587;23;20065;-87
2024/02/20 08:58:23;;;;;;;3.40;2.10;;;;;;;9.82;61.71;96221.75;6192115;23;20015;-87
2024/02/20 09:00:49;;;;;;;5.22;2.30;;;;;;;9.78;62.35;96231.59;6217708;23;20008;-87
2024/02/20 09:05:39;;;;;;;2.10;1.77;;;;;;;9.61;62.57;96232.41;6230401;22;20078;-87
2024/02/20 09:08:07;;;;;;;2.65;1.80;;;;;;;9.79;62.25;96235.84;6225556;23;20016;-86
2024/02/20 09:10:32;;;;;;;3.05;1.90;;;;;;;10.14;60.43;96239.41;6220445;23;20000;-87
2024/02/20 09:12:59;;;;;;;3.17;2.00;;;;;;;10.15;60.41;96242.84;6219017;23;20011;-87
2024/02/20 09:15:28;;;;;;;4.50;2.08;;;;;;;9.91;60.60;96235.63;6219803;23;20019;-87
2024/02/20 09:17:54;;;;;;;3.28;2.10;;;;;;;9.72;61.67;96236.59;6219286;23;20007;-86
2024/02/20 09:20:19;;;;;;;5.05;2.00;;;;;;;9.68;61.89;96243.03;6217267;22;20063;-87
2024/02/20 09:22:46;;;;;;;3.17;2.00;;;;;;;9.74;62.00;96243.25;6194075;23;20110;-87
2024/02/20 09:25:16;;;;;;;3.20;2.15;;;;;;;10.15;60.93;96246.25;6219609;23;20004;-87
2024/02/20 09:27:42;;;;;;;3.03;1.90;;;;;;;10.03;61.46;96244.84;6219324;23;20046;-87
2024/02/20 09:30:08;;;;;;;3.97;2.13;;;;;;;10.26;60.27;96254.78;6194040;23;20004;-86
2024/02/20 09:32:33;;;;;;;3.97;1.90;;;;;;;10.30;58.51;96253.50;6242643;22;20057;-86
2024/02/20 09:35:02;;;;;;;2.72;1.85;;;;;;;10.00;58.32;96252.13;6194268;23;20010;-86
2024/02/20 09:37:28;;;;;;;3.60;1.88;;;;;;;9.79;60.29;96246.25;6194071;23;20012;-86
2024/02/20 09:39:53;;;;;;;4.35;2.00;;;;;;;10.03;60.16;96238.81;6213825;23;20117;-87
2024/02/20 09:42:27;;;;;;;3.92;1.83;;;;;;;10.13;60.79;96244.78;6219127;23;20103;-86
2024/02/20 09:44:54;;;;;;;5.00;2.03;;;;;;;10.59;59.87;96252.50;6219805;23;20026;-85
2024/02/20 09:47:23;;;;;;;2.67;1.80;;;;;;;10.95;59.31;96243.59;6218596;23;20069;-86
2024/02/20 09:54:51;;;;;;;3.08;1.80;;;;;;;11.73;56.57;96236.59;6232691;22;20047;-87
2024/02/20 09:57:17;;;;;;;2.33;1.50;;;;;;;12.67;55.57;96237.94;6193738;23;20103;-87
2024/02/20 09:59:46;;;;;;;2.42;1.42;;;;;;;13.11;54.82;96253.19;6193377;23;20031;-86
2024/02/20 10:02:21;;;;;;;2.33;1.30;;;;;;;13.32;54.57;96253.66;6169024;23;20016;-87
2024/02/20 10:04:51;;;;;;;3.55;1.63;;;;;;;13.27;53.40;96234.06;6218333;23;20008;-87
2024/02/20 10:07:19;;;;;;;3.08;1.30;;;;;;;13.65;50.09;96244.69;6218811;23;20008;-87
2024/02/20 10:09:48;;;;;;;3.33;1.30;;;;;;;13.47;51.51;96239.69;6218648;23;20012;-87
2024/02/20 10:12:21;;;;;;;3.33;1.35;;;;;;;13.21;50.08;96239.97;6193533;23;20012;-87
2024/02/20 10:14:47;;;;;;;3.85;1.30;;;;;;;12.94;49.22;96219.47;6218246;23;20027;-86
2024/02/20 10:17:17;;;;;;;3.92;1.35;;;;;;;12.60;50.96;96230.94;6218758;23;20000;-87
2024/02/20 10:19:45;;;;;;;1.83;0.90;;;;;;;12.60;50.77;96238.78;6243156;23;19996;-87
2024/02/20 10:22:21;;;;;;;3.60;1.27;;;;;;;12.78;51.94;96231.56;6218752;23;20019;-87
2024/02/20 10:27:14;;;;;;;2.45;1.10;;;;;;;12.72;50.60;96221.81;6199090;23;20043;-87
2024/02/20 10:29:40;;;;;;;3.63;1.60;;;;;;;12.75;50.90;96234.50;6238218;23;20077;-87
2024/02/20 10:32:05;;;;;;;3.70;1.40;;;;;;;12.75;51.52;96233.69;6163692;23;20005;-87
2024/02/20 10:34:31;;;;;;;2.67;1.50;;;;;;;12.52;52.21;96232.56;6188493;23;20013;-87
2024/02/20 10:37:05;;;;;;;4.90;2.97;;;;;;;12.66;52.43;96230.28;6164075;23;20016;-88
2024/02/20 10:42:04;;;;;;;3.97;1.60;;;;;;;13.56;54.11;96229.22;6196340;23;20032;-86
2024/02/20 10:44:29;;;;;;;3.30;1.35;;;;;;;13.71;50.99;96226.69;6212582;23;20070;-86
2024/02/20 10:47:01;;;;;;;4.13;1.40;;;;;;;13.65;48.98;96229.00;6213261;23;20009;-87
2024/02/20 10:49:33;;;;;;;3.20;1.23;;;;;;;14.26;47.99;96223.88;6213908;23;20035;-87
2024/02/20 10:54:30;;;;;;;3.88;1.40;;;;;;;14.17;47.93;96221.50;6243184;22;20032;-86
2024/02/20 10:56:57;;;;;;;3.95;1.83;;;;;;;14.41;47.39;96212.63;6217530;23;20020;-87
2024/02/20 10:59:25;;;;;;;4.57;1.33;;;;;;;14.67;47.74;96214.88;6217740;23;20000;-87
2024/02/20 11:01:50;;;;;;;5.22;1.20;;;;;;;14.14;46.00;96201.72;6192619;23;20008;-86
2024/02/20 11:04:16;;;;;;;3.35;1.10;;;;;;;14.10;47.38;96217.94;6217465;23;20004;-86
2024/02/20 11:06:47;;;;;;;4.35;1.33;;;;;;;14.21;48.70;96220.16;6217463;23;20029;-86
2024/02/20 11:09:15;;;;;;;2.47;1.40;;;;;;;14.37;45.41;96206.91;6192311;23;20003;-87
2024/02/20 11:16:51;;;;;;;4.15;1.40;;;;;;;13.81;50.21;96217.63;6231814;22;20408;-86
2024/02/20 11:19:25;;;;;;;2.80;1.25;;;;;;;13.98;46.43;96212.31;6217080;23;20000;-86
2024/02/20 11:22:04;;;;;;;4.88;1.58;;;;;;;14.41;44.78;96192.50;6192119;23;20060;-86
2024/02/20 11:24:33;;;;;;;2.67;1.20;;;;;;;14.47;45.73;96193.59;6194163;23;20023;-86
2024/02/20 11:27:03;;;;;;;3.65;1.20;;;;;;;14.36;44.71;96196.66;6216767;23;20229;-86
2024/02/20 11:37:09;;;;;;;3.10;1.30;;;;;;;14.45;46.40;96180.69;6212788;23;20055;-87
2024/02/20 11:39:35;;;;;;;;;;;;;;;14.14;44.44;96172.94;6187293;23;20005;-87
2024/02/20 11:42:00;;;;;;;3.83;1.42;;;;;;;14.71;42.42;96176.06;6186632;23;19912;-87
2024/02/20 11:44:30;;;;;;;2.90;1.30;;;;;;;14.38;45.84;96158.81;6162382;23;20066;-86
2024/02/20 11:46:57;;;;;;;3.75;1.42;;;;;;;14.58;45.00;96161.78;6187054;23;20023;-86
2024/02/20 11:49:25;;;;;;;3.03;1.33;;;;;;;14.88;44.51;96168.84;6212515;23;20007;-86
2024/02/20 11:51:51;;;;;;;4.22;1.45;;;;;;;14.58;43.84;96164.41;6162751;23;20005;-87
2024/02/20 11:54:20;;;;;;;3.35;1.25;;;;;;;14.47;43.54;96155.16;6187406;23;20039;-87
2024/02/20 11:56:46;;;;;;;3.75;1.30;;;;;;;14.66;46.31;96140.75;6212011;23;20000;-87
2024/02/20 12:01:40;;;;;;;3.13;1.38;;;;;;;14.84;42.73;96145.59;6214084;23;20030;-86
2024/02/20 12:04:06;;;;;;;3.88;1.20;;;;;;;14.63;42.60;96129.81;6243022;23;20015;-86
2024/02/20 12:06:35;;;;;;;3.15;1.30;;;;;;;14.47;42.33;96136.81;6217676;23;20007;-87
2024/02/20 12:09:01;;;;;;;2.60;1.05;;;;;;;14.45;41.82;96130.97;6216601;23;20103;-86
2024/02/20 12:11:26;;;;;;;2.88;1.10;;;;;;;13.87;42.44;96128.03;6217223;23;20079;-86
2024/02/20 12:13:56;;;;;;;4.43;1.23;;;;;;;13.68;42.89;96126.69;6217515;23;20225;-87
2024/02/20 12:16:24;;;;;;;3.35;1.20;;;;;;;13.55;43.91;96134.28;6217347;23;20012;-86
2024/02/20 12:24:07;;;;;;;2.45;1.10;;;;;;;14.03;41.90;96127.09;6241200;22;20008;-86
2024/02/20 12:26:33;;;;;;;3.58;1.20;;;;;;;14.19;41.98;96115.66;6241850;23;20008;-86
2024/02/20 12:28:58;;;;;;;3.42;1.30;;;;;;;14.10;42.94;96126.38;6237201;22;20094;-87
2024/02/20 12:31:26;;;;;;;2.88;1.15;;;;;;;13.93;42.23;96116.03;6216917;23;20004;-87
2024/02/20 12:33:53;;;;;;;2.03;1.10;;;;;;;13.95;44.00;96114.06;6217217;23;20004;-87
2024/02/20 12:36:19;;;;;;;2.75;1.30;;;;;;;13.70;42.68;96113.44;6216758;23;20042;-88
2024/02/20 12:38:45;;;;;;;4.80;1.30;;;;;;;14.25;42.00;96122.00;6216832;23;20008;-87
2024/02/20 12:41:11;;;;;;;2.38;1.17;;;;;;;13.92;42.31;96122.28;6216376;23;20004;-87
2024/02/20 12:43:38;;;;;;;3.05;1.20;;;;;;;14.00;40.41;96113.56;6217497;23;20031;-87
2024/02/20 12:46:04;;;;;;;3.50;1.10;;;;;;;13.65;41.17;96103.53;6227037;23;20004;-87
2024/02/20 12:50:55;;;;;;;2.45;0.95;;;;;;;13.82;42.85;96117.28;6244141;22;20123;-86